Time;durP1;ratioP1;P1;durP2;ratioP2;P2;SDS_P1;SDS_P2;PMS_P1;PMS_P2;Temp;Humidity;BMP_temperature;BMP_pressure;BME280_temperature;BME280_humidity;BME280_pressure;Samples;Min_cycle;Max_cycle;Signal;HPM_P1;HPM_P2
2022/12/21 00:01:29;;;;;;;;;11.00;8.67;;;;;;;;5055465;28;45470;-76
2022/12/21 00:03:58;;;;;;;;;14.67;12.00;;;;;;;;5057142;28;45692;-76
2022/12/21 00:06:24;;;;;;;;;10.00;8.00;;;;;;;;5056858;28;45399;-76
2022/12/21 00:08:51;;;;;;;;;11.00;8.00;;;;;;;;5055353;28;45415;-77
2022/12/21 00:11:16;;;;;;;;;13.00;11.33;;;;;;;;5055406;28;45798;-76
2022/12/21 00:13:42;;;;;;;;;6.67;6.67;;;;;;;;5041973;28;46972;-76
2022/12/21 00:16:09;;;;;;;;;10.00;10.00;;;;;;;;5056123;28;45500;-75
2022/12/21 00:18:35;;;;;;;;;8.33;8.33;;;;;;;;5059031;28;45368;-76
2022/12/21 00:21:02;;;;;;;;;9.67;7.00;;;;;;;;5038149;28;45821;-76
2022/12/21 00:23:28;;;;;;;;;13.33;12.00;;;;;;;;5037795;28;45298;-76
2022/12/21 00:25:53;;;;;;;;;8.67;8.67;;;;;;;;5057046;28;44743;-76
2022/12/21 00:28:18;;;;;;;;;13.00;9.33;;;;;;;;5052417;28;45404;-76
2022/12/21 00:30:43;;;;;;;;;18.67;13.67;;;;;;;;5039104;28;45444;-76
2022/12/21 00:33:08;;;;;;;;;14.67;11.33;;;;;;;;5049368;28;45364;-76
2022/12/21 00:35:34;;;;;;;;;13.67;12.67;;;;;;;;5039222;28;45284;-77
2022/12/21 00:37:59;;;;;;;;;14.00;12.00;;;;;;;;5050074;28;44724;-76
2022/12/21 00:40:24;;;;;;;;;7.67;6.33;;;;;;;;5058993;28;45650;-76
2022/12/21 00:42:49;;;;;;;;;8.33;7.33;;;;;;;;5026532;28;47854;-76
2022/12/21 00:45:14;;;;;;;;;11.33;10.00;;;;;;;;5057766;28;45284;-76
2022/12/21 00:47:40;;;;;;;;;10.67;9.33;;;;;;;;5045166;28;45425;-77
2022/12/21 00:50:05;;;;;;;;;9.67;8.33;;;;;;;;5059952;28;45457;-76
2022/12/21 00:52:30;;;;;;;;;11.67;9.67;;;;;;;;5038350;28;46127;-76
2022/12/21 00:54:56;;;;;;;;;11.33;11.33;;;;;;;;5058916;28;45438;-77
2022/12/21 00:57:21;;;;;;;;;10.33;9.00;;;;;;;;5056571;28;45494;-77
2022/12/21 00:59:46;;;;;;;;;12.00;10.00;;;;;;;;5058559;28;45305;-77
2022/12/21 01:02:11;;;;;;;;;9.00;9.00;;;;;;;;5050124;28;45324;-77
2022/12/21 01:04:36;;;;;;;;;8.00;8.00;;;;;;;;5041168;28;45257;-77
2022/12/21 01:07:02;;;;;;;;;12.00;8.00;;;;;;;;5050882;28;44781;-77
2022/12/21 01:09:27;;;;;;;;;9.00;6.67;;;;;;;;5052889;28;45325;-77
2022/12/21 01:11:52;;;;;;;;;14.00;10.33;;;;;;;;5053822;28;45455;-77
2022/12/21 01:14:17;;;;;;;;;9.00;8.00;;;;;;;;5040871;28;45398;-77
2022/12/21 01:16:42;;;;;;;;;11.67;10.00;;;;;;;;5037148;28;45378;-77
2022/12/21 01:19:09;;;;;;;;;13.67;11.00;;;;;;;;5031944;28;45906;-77
2022/12/21 01:21:34;;;;;;;;;9.00;8.00;;;;;;;;5052115;28;45387;-77
2022/12/21 01:24:00;;;;;;;;;8.00;8.00;;;;;;;;5033397;28;45246;-77
2022/12/21 01:26:25;;;;;;;;;9.00;9.00;;;;;;;;5039498;28;45242;-76
2022/12/21 01:28:50;;;;;;;;;11.00;8.00;;;;;;;;5051615;28;45440;-76
2022/12/21 01:31:16;;;;;;;;;7.67;7.67;;;;;;;;5055814;28;45443;-77
2022/12/21 01:33:41;;;;;;;;;6.00;6.00;;;;;;;;5048762;28;45336;-76
2022/12/21 01:36:07;;;;;;;;;9.00;9.00;;;;;;;;5055708;28;45429;-76
2022/12/21 01:38:33;;;;;;;;;11.00;8.67;;;;;;;;5048751;28;46360;-76
2022/12/21 01:40:58;;;;;;;;;11.33;8.67;;;;;;;;5056172;28;45370;-76
2022/12/21 01:43:42;;;;;;;;;13.33;11.00;;;;;;;;5051233;28;45319;-77
2022/12/21 01:46:10;;;;;;;;;9.00;8.33;;;;;;;;5053363;28;45223;-77
2022/12/21 01:48:39;;;;;;;;;10.67;10.67;;;;;;;;5040740;28;45483;-77
2022/12/21 01:51:05;;;;;;;;;6.67;6.67;;;;;;;;5034723;28;47106;-76
2022/12/21 01:53:33;;;;;;;;;7.33;7.33;;;;;;;;5025709;28;45346;-76
2022/12/21 01:56:01;;;;;;;;;7.00;6.00;;;;;;;;5054904;28;44811;-76
2022/12/21 01:58:28;;;;;;;;;9.33;4.33;;;;;;;;5038709;28;45685;-76
2022/12/21 02:00:55;;;;;;;;;4.33;4.00;;;;;;;;5055828;28;45619;-77
2022/12/21 02:03:22;;;;;;;;;4.33;3.00;;;;;;;;5047259;28;45338;-76
2022/12/21 02:05:53;;;;;;;;;0.00;0.00;;;;;;;;5056873;28;45324;-76
2022/12/21 02:08:18;;;;;;;;;2.00;2.00;;;;;;;;5048154;28;45409;-76
2022/12/21 02:10:44;;;;;;;;;1.00;1.00;;;;;;;;5054464;28;45349;-76
2022/12/21 02:13:13;;;;;;;;;2.00;2.00;;;;;;;;5052196;28;46413;-76
2022/12/21 02:15:57;;;;;;;;;1.00;1.00;;;;;;;;5056533;28;45454;-76
2022/12/21 02:18:30;;;;;;;;;1.00;1.00;;;;;;;;5046389;28;45325;-76
2022/12/21 02:20:59;;;;;;;;;1.00;1.00;;;;;;;;5046780;28;45419;-76
2022/12/21 02:23:30;;;;;;;;;2.67;1.00;;;;;;;;5050510;28;45250;-76
2022/12/21 02:26:07;;;;;;;;;3.00;3.00;;;;;;;;5055991;28;45172;-76
2022/12/21 02:28:35;;;;;;;;;1.00;1.00;;;;;;;;5040253;28;47281;-76
2022/12/21 02:31:03;;;;;;;;;2.00;1.00;;;;;;;;5054970;28;45421;-76
2022/12/21 02:33:56;;;;;;;;;2.00;1.00;;;;;;;;5039865;28;45286;-76
2022/12/21 02:36:33;;;;;;;;;1.00;1.00;;;;;;;;5009909;28;45396;-76
2022/12/21 02:39:03;;;;;;;;;3.00;2.00;;;;;;;;5041615;28;45290;-76
2022/12/21 02:41:28;;;;;;;;;3.67;2.00;;;;;;;;5054593;28;45558;-76
2022/12/21 02:44:14;;;;;;;;;1.00;1.00;;;;;;;;5046546;28;45556;-76
2022/12/21 02:46:48;;;;;;;;;2.00;2.00;;;;;;;;5053828;28;45438;-76
2022/12/21 02:49:19;;;;;;;;;1.33;1.00;;;;;;;;5051976;28;45254;-76
2022/12/21 02:51:48;;;;;;;;;1.33;1.33;;;;;;;;5054683;28;45532;-76
2022/12/21 02:54:14;;;;;;;;;2.00;1.00;;;;;;;;5053561;28;45602;-76
2022/12/21 02:56:39;;;;;;;;;1.33;1.33;;;;;;;;5056636;28;44793;-76
2022/12/21 02:59:05;;;;;;;;;2.00;2.00;;;;;;;;5054676;28;45164;-76
2022/12/21 03:01:43;;;;;;;;;1.00;1.00;;;;;;;;5055049;28;45468;-76
2022/12/21 03:04:28;;;;;;;;;3.75;2.50;;;;;;;;5048338;28;45445;-76
2022/12/21 03:06:56;;;;;;;;;3.50;2.25;;;;;;;;5052071;28;45447;-76
2022/12/21 03:09:21;;;;;;;;;4.00;3.00;;;;;;;;5055041;28;45642;-76
2022/12/21 03:11:53;;;;;;;;;3.00;3.00;;;;;;;;5056289;28;45224;-76
2022/12/21 03:14:18;;;;;;;;;3.50;3.00;;;;;;;;5059407;28;45349;-76
2022/12/21 03:16:44;;;;;;;;;4.00;4.00;;;;;;;;5051391;28;45349;-76
2022/12/21 03:19:31;;;;;;;;;5.25;3.00;;;;;;;;5037384;28;46963;-76
2022/12/21 03:22:06;;;;;;;;;4.00;2.50;;;;;;;;5055696;28;45348;-76
2022/12/21 03:24:36;;;;;;;;;3.00;1.50;;;;;;;;5058213;28;45229;-76
2022/12/21 03:27:10;;;;;;;;;2.00;2.00;;;;;;;;5049742;28;45368;-76
2022/12/21 03:29:39;;;;;;;;;4.00;2.50;;;;;;;;5056859;28;45356;-76
2022/12/21 03:32:10;;;;;;;;;3.00;3.00;;;;;;;;5052349;28;45644;-76
2022/12/21 03:34:38;;;;;;;;;2.00;2.00;;;;;;;;5042454;28;45928;-76
2022/12/21 03:37:03;;;;;;;;;2.00;1.50;;;;;;;;5046228;28;45493;-76
2022/12/21 03:39:30;;;;;;;;;1.25;1.25;;;;;;;;5052267;28;45495;-76
2022/12/21 03:41:55;;;;;;;;;2.00;2.00;;;;;;;;5052953;28;45429;-76
2022/12/21 03:44:25;;;;;;;;;4.00;3.00;;;;;;;;5057207;28;45218;-76
2022/12/21 03:46:54;;;;;;;;;0.00;0.00;;;;;;;;5049526;28;45396;-76
2022/12/21 03:49:21;;;;;;;;;3.50;2.00;;;;;;;;5048252;28;46541;-76
2022/12/21 03:51:53;;;;;;;;;3.00;1.00;;;;;;;;5036435;28;47183;-76
2022/12/21 03:54:24;;;;;;;;;2.00;2.00;;;;;;;;5041752;28;45482;-76
2022/12/21 03:56:49;;;;;;;;;5.00;3.00;;;;;;;;5041775;28;45723;-76
2022/12/21 03:59:16;;;;;;;;;2.25;2.00;;;;;;;;5052326;28;45263;-76
2022/12/21 04:01:41;;;;;;;;;1.50;1.00;;;;;;;;5053373;28;45566;-76
2022/12/21 04:04:13;;;;;;;;;3.25;2.00;;;;;;;;5041941;28;45353;-76
2022/12/21 04:06:40;;;;;;;;;3.00;3.00;;;;;;;;5053989;28;44824;-76
2022/12/21 04:09:05;;;;;;;;;4.00;2.00;;;;;;;;5054271;28;45377;-76
2022/12/21 04:14:19;;;;;;;;;3.50;2.00;;;;;;;;5055788;28;45362;-76
2022/12/21 04:16:44;;;;;;;;;3.00;3.00;;;;;;;;5050629;28;45432;-76
2022/12/21 04:21:53;;;;;;;;;5.00;2.00;;;;;;;;5051896;28;45444;-76
2022/12/21 04:29:46;;;;;;;;;2.00;2.00;;;;;;;;5058317;28;45375;-76
2022/12/21 04:32:12;;;;;;;;;3.50;2.25;;;;;;;;5042921;28;45368;-76
2022/12/21 04:34:37;;;;;;;;;2.75;2.75;;;;;;;;5059038;28;45355;-76
2022/12/21 04:39:46;;;;;;;;;1.00;1.00;;;;;;;;5051406;28;45364;-76
2022/12/21 04:42:11;;;;;;;;;2.25;2.25;;;;;;;;5050309;28;45462;-76
2022/12/21 04:44:36;;;;;;;;;2.75;2.00;;;;;;;;5052281;28;45500;-76
2022/12/21 04:47:01;;;;;;;;;3.75;3.00;;;;;;;;5051634;28;45382;-76
2022/12/21 04:49:27;;;;;;;;;5.75;3.00;;;;;;;;5053176;28;45328;-76
2022/12/21 04:51:52;;;;;;;;;4.00;4.00;;;;;;;;5047132;28;45443;-76
2022/12/21 04:54:18;;;;;;;;;3.50;3.50;;;;;;;;5049048;28;45276;-76
2022/12/21 04:56:44;;;;;;;;;4.00;4.00;;;;;;;;5053583;28;45443;-76
2022/12/21 04:59:09;;;;;;;;;2.50;2.50;;;;;;;;5051041;28;45348;-76
2022/12/21 05:01:34;;;;;;;;;2.00;2.00;;;;;;;;5052943;28;45579;-76
2022/12/21 05:03:59;;;;;;;;;2.50;2.00;;;;;;;;5050864;28;45327;-75
2022/12/21 05:06:24;;;;;;;;;2.50;2.50;;;;;;;;5053337;28;45390;-76
2022/12/21 05:08:49;;;;;;;;;3.25;3.25;;;;;;;;5052606;28;45483;-76
2022/12/21 05:11:19;;;;;;;;;3.75;3.25;;;;;;;;5054056;28;45364;-76
2022/12/21 05:13:45;;;;;;;;;2.00;2.00;;;;;;;;5053760;28;45316;-75
2022/12/21 05:16:11;;;;;;;;;5.00;3.25;;;;;;;;5039917;28;45322;-76
2022/12/21 05:18:37;;;;;;;;;2.50;2.50;;;;;;;;5053892;28;45459;-75
2022/12/21 05:21:02;;;;;;;;;5.25;3.25;;;;;;;;5055734;28;45308;-76
2022/12/21 05:23:28;;;;;;;;;3.00;3.00;;;;;;;;5055752;28;45253;-76
2022/12/21 05:25:53;;;;;;;;;3.75;3.75;;;;;;;;5057164;28;45288;-76
2022/12/21 05:28:18;;;;;;;;;3.25;3.25;;;;;;;;5056049;28;45311;-75
2022/12/21 05:30:43;;;;;;;;;6.75;5.25;;;;;;;;5057261;28;46086;-76
2022/12/21 05:33:09;;;;;;;;;5.50;5.50;;;;;;;;5049319;28;45345;-76
2022/12/21 05:35:38;;;;;;;;;7.25;5.00;;;;;;;;5039349;28;45430;-76
2022/12/21 05:38:03;;;;;;;;;4.00;4.00;;;;;;;;5045095;28;45916;-76
2022/12/21 05:40:28;;;;;;;;;5.00;5.00;;;;;;;;5058273;28;45471;-76
2022/12/21 05:42:53;;;;;;;;;5.00;4.00;;;;;;;;5048496;28;45306;-76
2022/12/21 05:45:18;;;;;;;;;5.50;3.75;;;;;;;;5041449;28;45243;-76
2022/12/21 05:47:44;;;;;;;;;2.75;2.75;;;;;;;;5041964;28;45273;-76
2022/12/21 05:50:09;;;;;;;;;2.25;2.25;;;;;;;;5050849;28;45364;-76
2022/12/21 05:52:34;;;;;;;;;3.00;3.00;;;;;;;;5038873;28;45151;-76
2022/12/21 05:54:59;;;;;;;;;2.00;2.00;;;;;;;;5051107;28;45217;-75
2022/12/21 05:57:24;;;;;;;;;3.00;3.00;;;;;;;;5040059;28;45681;-76
2022/12/21 05:59:50;;;;;;;;;3.00;3.00;;;;;;;;5040882;28;46218;-75
2022/12/21 06:02:15;;;;;;;;;3.00;1.25;;;;;;;;5035025;28;45389;-76
2022/12/21 06:04:40;;;;;;;;;3.00;2.00;;;;;;;;5052028;28;45531;-76
2022/12/21 06:07:05;;;;;;;;;2.75;2.00;;;;;;;;5051877;28;45534;-76
2022/12/21 06:09:31;;;;;;;;;2.00;2.00;;;;;;;;5052555;28;45427;-76
2022/12/21 06:11:56;;;;;;;;;2.00;2.00;;;;;;;;5052004;28;45436;-76
2022/12/21 06:14:21;;;;;;;;;3.00;3.00;;;;;;;;5041644;28;45312;-76
2022/12/21 06:16:46;;;;;;;;;2.00;2.00;;;;;;;;5043530;28;45409;-76
2022/12/21 06:19:11;;;;;;;;;5.75;2.00;;;;;;;;5044110;28;47500;-75
2022/12/21 06:21:37;;;;;;;;;4.00;2.75;;;;;;;;5057421;28;45416;-76
2022/12/21 06:24:02;;;;;;;;;3.00;3.00;;;;;;;;5059917;28;45413;-76
2022/12/21 06:26:27;;;;;;;;;3.00;3.00;;;;;;;;5057804;28;45481;-76
2022/12/21 06:28:53;;;;;;;;;3.50;3.50;;;;;;;;5060486;28;45496;-75
2022/12/21 06:31:19;;;;;;;;;4.00;3.00;;;;;;;;5059431;28;45332;-76
2022/12/21 06:33:44;;;;;;;;;3.50;3.00;;;;;;;;5053555;28;45357;-75
2022/12/21 06:36:10;;;;;;;;;2.75;2.00;;;;;;;;5056651;28;45324;-76
2022/12/21 06:38:36;;;;;;;;;8.25;3.50;;;;;;;;5044526;28;46167;-74
2022/12/21 06:41:03;;;;;;;;;2.25;2.25;;;;;;;;5057770;28;45376;-76
2022/12/21 06:43:29;;;;;;;;;4.00;3.00;;;;;;;;5055084;28;44742;-76
2022/12/21 06:45:55;;;;;;;;;2.00;2.00;;;;;;;;5058026;28;45155;-76
2022/12/21 06:48:21;;;;;;;;;4.75;4.00;;;;;;;;5045042;28;46939;-76
2022/12/21 06:50:50;;;;;;;;;2.00;2.00;;;;;;;;5057688;28;45340;-76
2022/12/21 06:53:15;;;;;;;;;3.00;2.00;;;;;;;;5047051;28;45332;-76
2022/12/21 06:55:40;;;;;;;;;3.50;3.00;;;;;;;;5056644;28;45247;-76
2022/12/21 06:58:06;;;;;;;;;3.50;1.50;;;;;;;;5036619;28;47901;-76
2022/12/21 07:00:31;;;;;;;;;6.25;3.00;;;;;;;;5039959;28;45308;-76
2022/12/21 07:02:56;;;;;;;;;2.25;2.00;;;;;;;;5053349;28;45356;-76
2022/12/21 07:05:22;;;;;;;;;5.00;2.00;;;;;;;;5058943;28;45268;-76
2022/12/21 07:07:47;;;;;;;;;3.00;3.00;;;;;;;;5040507;28;49054;-76
2022/12/21 07:10:12;;;;;;;;;4.25;3.00;;;;;;;;5059176;28;45277;-76
2022/12/21 07:12:37;;;;;;;;;5.25;2.00;;;;;;;;5036148;28;45396;-76
2022/12/21 07:15:02;;;;;;;;;4.75;4.75;;;;;;;;5058825;28;45251;-76
2022/12/21 07:17:28;;;;;;;;;3.75;3.25;;;;;;;;5038546;28;45505;-76
2022/12/21 07:19:53;;;;;;;;;4.00;3.00;;;;;;;;5043230;28;45457;-76
2022/12/21 07:22:18;;;;;;;;;4.25;2.75;;;;;;;;5037061;28;45503;-76
2022/12/21 07:24:44;;;;;;;;;3.00;3.00;;;;;;;;5041862;28;45994;-76
2022/12/21 07:27:09;;;;;;;;;2.00;2.00;;;;;;;;5039926;28;47391;-76
2022/12/21 07:29:34;;;;;;;;;9.00;3.75;;;;;;;;5058686;28;45222;-75
2022/12/21 07:32:00;;;;;;;;;3.00;3.00;;;;;;;;5055128;28;45203;-76
2022/12/21 07:34:25;;;;;;;;;3.75;2.00;;;;;;;;5060046;28;45235;-75
2022/12/21 07:36:50;;;;;;;;;4.50;3.00;;;;;;;;5050133;28;45471;-75
2022/12/21 07:39:15;;;;;;;;;5.00;4.00;;;;;;;;5058129;28;45221;-75
2022/12/21 07:41:40;;;;;;;;;4.00;4.00;;;;;;;;5054309;28;45464;-74
2022/12/21 07:44:05;;;;;;;;;2.00;1.00;;;;;;;;5048835;28;45207;-75
2022/12/21 07:46:31;;;;;;;;;4.75;3.75;;;;;;;;5037703;28;45703;-74
2022/12/21 07:48:56;;;;;;;;;3.75;3.75;;;;;;;;5034324;28;45573;-76
2022/12/21 07:51:21;;;;;;;;;7.50;3.75;;;;;;;;5053459;28;45551;-76
2022/12/21 07:53:46;;;;;;;;;4.00;4.00;;;;;;;;5050903;28;45285;-76
2022/12/21 07:56:13;;;;;;;;;4.50;4.50;;;;;;;;5056313;28;45307;-75
2022/12/21 07:58:39;;;;;;;;;8.00;6.00;;;;;;;;5052717;28;45294;-75
2022/12/21 08:01:09;;;;;;;;;5.50;4.00;;;;;;;;5057620;28;45247;-75
2022/12/21 08:03:35;;;;;;;;;5.00;4.50;;;;;;;;5051305;28;45309;-75
2022/12/21 08:06:00;;;;;;;;;4.00;4.00;;;;;;;;5045237;28;46112;-75
2022/12/21 08:08:25;;;;;;;;;5.25;5.25;;;;;;;;5031113;28;45415;-76
2022/12/21 08:10:51;;;;;;;;;4.50;3.00;;;;;;;;5058530;28;45222;-75
2022/12/21 08:13:16;;;;;;;;;5.00;5.00;;;;;;;;5043485;28;45463;-75
2022/12/21 08:15:41;;;;;;;;;8.00;5.00;;;;;;;;5058392;28;46550;-75
2022/12/21 08:18:06;;;;;;;;;6.75;4.25;;;;;;;;5033473;28;45314;-75
2022/12/21 08:20:31;;;;;;;;;16.00;12.75;;;;;;;;5059620;28;45230;-75
2022/12/21 08:22:57;;;;;;;;;21.50;18.25;;;;;;;;5047782;28;45638;-76
2022/12/21 08:25:22;;;;;;;;;17.25;17.25;;;;;;;;5042277;28;47007;-77
2022/12/21 08:27:47;;;;;;;;;9.00;6.00;;;;;;;;5049348;28;45297;-75
2022/12/21 08:30:12;;;;;;;;;11.50;9.50;;;;;;;;5049535;28;45422;-75
2022/12/21 08:32:38;;;;;;;;;8.00;5.25;;;;;;;;5033740;28;45668;-76
2022/12/21 08:35:03;;;;;;;;;5.75;5.00;;;;;;;;5034134;28;47139;-75
2022/12/21 08:37:28;;;;;;;;;4.00;4.00;;;;;;;;5046148;28;45364;-76
2022/12/21 08:39:53;;;;;;;;;4.50;4.00;;;;;;;;5050473;28;45253;-76
2022/12/21 08:42:19;;;;;;;;;5.75;4.50;;;;;;;;5051332;28;45455;-75
2022/12/21 08:44:44;;;;;;;;;3.75;3.75;;;;;;;;5042047;28;46889;-76
2022/12/21 08:47:09;;;;;;;;;4.00;4.00;;;;;;;;5044698;28;45395;-76
2022/12/21 08:49:34;;;;;;;;;5.75;3.00;;;;;;;;5046234;28;45445;-76
2022/12/21 08:51:59;;;;;;;;;6.00;3.00;;;;;;;;5044136;28;45346;-74
2022/12/21 08:54:26;;;;;;;;;3.50;3.50;;;;;;;;5050170;28;45327;-74
2022/12/21 08:56:51;;;;;;;;;3.00;3.00;;;;;;;;5043225;28;45226;-74
2022/12/21 08:59:18;;;;;;;;;4.00;4.00;;;;;;;;5056191;28;45370;-74
2022/12/21 09:01:43;;;;;;;;;9.75;8.25;;;;;;;;5052832;28;45237;-74
2022/12/21 09:04:08;;;;;;;;;7.75;5.00;;;;;;;;5056825;28;45169;-74
2022/12/21 09:06:33;;;;;;;;;7.25;7.25;;;;;;;;5055371;28;45438;-74
2022/12/21 09:08:58;;;;;;;;;15.75;12.00;;;;;;;;5058500;28;45197;-74
2022/12/21 09:11:24;;;;;;;;;18.25;13.25;;;;;;;;5056891;28;45499;-74
2022/12/21 09:13:49;;;;;;;;;14.50;10.50;;;;;;;;5050260;28;45321;-74
2022/12/21 09:16:16;;;;;;;;;9.25;7.00;;;;;;;;5054969;28;45527;-75
2022/12/21 09:18:41;;;;;;;;;8.25;4.00;;;;;;;;5047386;28;45327;-74
2022/12/21 09:21:07;;;;;;;;;10.25;6.50;;;;;;;;5055855;28;44815;-74
2022/12/21 09:23:32;;;;;;;;;9.50;6.75;;;;;;;;5032096;28;46767;-74
2022/12/21 09:25:57;;;;;;;;;10.00;7.75;;;;;;;;5054970;28;45320;-74
2022/12/21 09:28:22;;;;;;;;;8.00;8.00;;;;;;;;5034510;28;45294;-74
2022/12/21 09:30:48;;;;;;;;;9.50;9.50;;;;;;;;5057344;28;45308;-74
2022/12/21 09:33:13;;;;;;;;;9.50;9.50;;;;;;;;5044194;28;45521;-73
2022/12/21 09:35:38;;;;;;;;;8.50;6.00;;;;;;;;5054424;28;45238;-74
2022/12/21 09:38:03;;;;;;;;;8.50;6.25;;;;;;;;5051224;28;45347;-74
2022/12/21 09:40:30;;;;;;;;;5.50;4.25;;;;;;;;5040552;28;45261;-75
2022/12/21 09:43:05;;;;;;;;;6.75;6.75;;;;;;;;5049035;28;45476;-75
2022/12/21 09:45:49;;;;;;;;;12.00;6.00;;;;;;;;5048919;28;45314;-75
2022/12/21 09:48:17;;;;;;;;;7.75;4.50;;;;;;;;5054575;28;45372;-75
2022/12/21 09:50:46;;;;;;;;;9.00;4.75;;;;;;;;5056617;28;45640;-76
2022/12/21 09:53:21;;;;;;;;;5.75;4.00;;;;;;;;5053560;28;45226;-75
2022/12/21 09:55:49;;;;;;;;;5.00;5.00;;;;;;;;5036871;28;45486;-75
2022/12/21 09:58:21;;;;;;;;;5.75;4.75;;;;;;;;5054526;28;45245;-76
2022/12/21 10:00:50;;;;;;;;;5.75;5.00;;;;;;;;5056898;28;45170;-76
2022/12/21 10:03:23;;;;;;;;;4.50;4.50;;;;;;;;5049306;28;46230;-77
2022/12/21 10:05:57;;;;;;;;;6.00;5.00;;;;;;;;5055174;28;45431;-76
2022/12/21 10:08:52;;;;;;;;;7.25;7.25;;;;;;;;5051925;28;45543;-76
2022/12/21 10:11:36;;;;;;;;;7.25;7.25;;;;;;;;5020644;28;45793;-76
2022/12/21 10:14:07;;;;;;;;;16.75;12.50;;;;;;;;5056399;28;45298;-76
2022/12/21 10:16:52;;;;;;;;;9.50;9.50;;;;;;;;5055016;28;45623;-77
2022/12/21 10:19:17;;;;;;;;;5.00;5.00;;;;;;;;5033652;28;45478;-75
2022/12/21 10:22:06;;;;;;;;;5.50;5.00;;;;;;;;5053505;28;45554;-77
2022/12/21 10:24:41;;;;;;;;;6.00;5.50;;;;;;;;5040221;28;46866;-76
2022/12/21 10:27:19;;;;;;;;;5.25;5.25;;;;;;;;5053480;28;45423;-77
2022/12/21 10:29:48;;;;;;;;;6.00;4.50;;;;;;;;5057058;28;45269;-76
2022/12/21 10:32:14;;;;;;;;;2.75;2.75;;;;;;;;5034501;28;47181;-76
2022/12/21 10:34:46;;;;;;;;;4.25;4.25;;;;;;;;5051976;28;45400;-76
2022/12/21 10:37:14;;;;;;;;;12.00;6.50;;;;;;;;5049663;28;45337;-77
2022/12/21 10:39:39;;;;;;;;;5.25;4.00;;;;;;;;5057060;28;45343;-76
2022/12/21 10:42:07;;;;;;;;;4.25;4.25;;;;;;;;5051708;28;45426;-76
2022/12/21 10:44:34;;;;;;;;;6.00;5.50;;;;;;;;5056809;28;45351;-75
2022/12/21 10:47:00;;;;;;;;;6.50;4.50;;;;;;;;5053861;28;45309;-76
2022/12/21 10:49:33;;;;;;;;;6.25;5.00;;;;;;;;5056471;28;45356;-75
2022/12/21 10:51:58;;;;;;;;;6.25;4.00;;;;;;;;5053258;28;47120;-76
2022/12/21 10:54:25;;;;;;;;;7.00;4.75;;;;;;;;5056369;28;45442;-75
2022/12/21 10:56:51;;;;;;;;;5.75;5.50;;;;;;;;5030939;28;45365;-76
2022/12/21 10:59:42;;;;;;;;;8.25;5.00;;;;;;;;5056473;28;45297;-75
2022/12/21 11:02:27;;;;;;;;;5.25;5.25;;;;;;;;5049116;28;45626;-73
2022/12/21 11:04:52;;;;;;;;;13.25;11.50;;;;;;;;5059337;28;45487;-73
2022/12/21 11:07:23;;;;;;;;;4.75;4.75;;;;;;;;5057211;28;45473;-71
2022/12/21 11:09:59;;;;;;;;;6.75;6.75;;;;;;;;5059878;28;45343;-74
2022/12/21 11:12:25;;;;;;;;;8.25;5.00;;;;;;;;5055656;28;45513;-75
2022/12/21 11:14:52;;;;;;;;;8.25;7.00;;;;;;;;5059410;28;45612;-75
2022/12/21 11:17:28;;;;;;;;;36.75;30.25;;;;;;;;5055698;28;45534;-75
2022/12/21 11:20:04;;;;;;;;;6.75;5.00;;;;;;;;5043150;28;44850;-75
2022/12/21 11:22:31;;;;;;;;;6.00;6.00;;;;;;;;5042171;28;47114;-74
2022/12/21 11:24:57;;;;;;;;;8.50;8.00;;;;;;;;5040932;28;46834;-73
2022/12/21 11:27:30;;;;;;;;;8.25;5.25;;;;;;;;5056320;28;45357;-74
2022/12/21 11:30:00;;;;;;;;;8.25;6.50;;;;;;;;5042421;28;45413;-76
2022/12/21 11:32:28;;;;;;;;;11.00;9.00;;;;;;;;5047662;28;45561;-72
2022/12/21 11:34:53;;;;;;;;;7.50;7.00;;;;;;;;5034490;28;45327;-74
2022/12/21 11:37:21;;;;;;;;;7.00;7.00;;;;;;;;5049349;28;45538;-74
2022/12/21 11:39:46;;;;;;;;;11.67;6.67;;;;;;;;5051151;28;45294;-71
2022/12/21 11:42:16;;;;;;;;;6.00;6.00;;;;;;;;5049302;28;46135;-74
2022/12/21 11:44:41;;;;;;;;;6.33;5.00;;;;;;;;5032221;28;46118;-74
2022/12/21 11:47:19;;;;;;;;;7.00;6.00;;;;;;;;5052750;28;45306;-72
2022/12/21 11:50:03;;;;;;;;;5.67;4.33;;;;;;;;5041126;28;45535;-72
2022/12/21 11:52:34;;;;;;;;;8.67;7.00;;;;;;;;5053125;28;45372;-72
2022/12/21 11:55:05;;;;;;;;;7.00;3.00;;;;;;;;5052951;28;45331;-72
2022/12/21 11:57:33;;;;;;;;;8.00;5.00;;;;;;;;5056911;28;45484;-72
2022/12/21 12:00:05;;;;;;;;;7.33;4.67;;;;;;;;5059187;28;45232;-73
2022/12/21 12:02:30;;;;;;;;;6.00;4.67;;;;;;;;5056695;28;45437;-72
2022/12/21 12:04:58;;;;;;;;;5.00;5.00;;;;;;;;5042515;28;46150;-72
2022/12/21 12:07:23;;;;;;;;;8.00;7.25;;;;;;;;5053714;28;45396;-73
2022/12/21 12:10:01;;;;;;;;;7.00;7.00;;;;;;;;5042581;28;45534;-72
2022/12/21 12:12:29;;;;;;;;;8.00;5.00;;;;;;;;5046813;28;45522;-72
2022/12/21 12:15:09;;;;;;;;;8.00;7.00;;;;;;;;5042373;28;47169;-72
2022/12/21 12:17:57;;;;;;;;;7.33;6.67;;;;;;;;5047645;28;45355;-72
2022/12/21 12:20:25;;;;;;;;;5.67;5.67;;;;;;;;5053068;28;45376;-72
2022/12/21 12:23:09;;;;;;;;;6.33;4.67;;;;;;;;5049094;28;45773;-72
2022/12/21 12:25:34;;;;;;;;;5.67;5.00;;;;;;;;5059753;28;45554;-72
2022/12/21 12:28:11;;;;;;;;;7.33;5.67;;;;;;;;5037564;28;45381;-71
2022/12/21 12:30:45;;;;;;;;;6.33;6.33;;;;;;;;5059664;28;45213;-72
2022/12/21 12:33:16;;;;;;;;;8.00;6.33;;;;;;;;5046775;28;45318;-72
2022/12/21 12:35:53;;;;;;;;;9.00;7.75;;;;;;;;5056027;28;45581;-72
2022/12/21 12:38:21;;;;;;;;;8.33;6.33;;;;;;;;5031847;28;45523;-72
2022/12/21 12:40:55;;;;;;;;;11.25;8.00;;;;;;;;5040177;28;45240;-72
2022/12/21 12:43:39;;;;;;;;;5.25;5.25;;;;;;;;5055175;28;45323;-72
2022/12/21 12:46:23;;;;;;;;;8.00;5.00;;;;;;;;5039855;28;46002;-72
2022/12/21 12:48:54;;;;;;;;;7.33;5.00;;;;;;;;5051041;28;45480;-72
2022/12/21 12:51:35;;;;;;;;;7.25;7.00;;;;;;;;5042085;28;45247;-72
2022/12/21 12:54:14;;;;;;;;;4.67;4.67;;;;;;;;5054641;28;45671;-72
2022/12/21 12:56:51;;;;;;;;;7.00;5.00;;;;;;;;5056429;28;45341;-72
2022/12/21 12:59:16;;;;;;;;;5.33;5.00;;;;;;;;5059082;28;45436;-72
2022/12/21 13:01:44;;;;;;;;;3.00;3.00;;;;;;;;5056591;28;45652;-73
2022/12/21 13:04:18;;;;;;;;;5.33;5.00;;;;;;;;5059259;28;45455;-73
2022/12/21 13:07:08;;;;;;;;;8.00;3.67;;;;;;;;5047904;28;45446;-71
2022/12/21 13:09:40;;;;;;;;;3.00;3.00;;;;;;;;5041646;28;45275;-71
2022/12/21 13:12:21;;;;;;;;;5.00;5.00;;;;;;;;5047331;28;45476;-70
2022/12/21 13:14:51;;;;;;;;;6.00;4.67;;;;;;;;5054058;28;45545;-71
2022/12/21 13:17:31;;;;;;;;;3.00;3.00;;;;;;;;5049411;28;45436;-71
2022/12/21 13:19:58;;;;;;;;;2.00;2.00;;;;;;;;5055334;28;45273;-71
2022/12/21 13:22:25;;;;;;;;;2.67;2.67;;;;;;;;5047863;28;45331;-71
2022/12/21 13:24:58;;;;;;;;;1.00;1.00;;;;;;;;5057100;28;45347;-72
2022/12/21 13:27:28;;;;;;;;;2.33;2.33;;;;;;;;5048267;28;46217;-73
2022/12/21 13:30:01;;;;;;;;;2.33;2.00;;;;;;;;5058844;28;45498;-72
2022/12/21 13:32:27;;;;;;;;;3.00;2.00;;;;;;;;5045389;28;45513;-72
2022/12/21 13:35:12;;;;;;;;;2.00;2.00;;;;;;;;5051051;28;44825;-72
2022/12/21 13:37:39;;;;;;;;;3.67;3.00;;;;;;;;5048759;28;45440;-72
2022/12/21 13:40:16;;;;;;;;;13.50;10.75;;;;;;;;5049253;28;45235;-72
2022/12/21 13:42:49;;;;;;;;;6.00;5.00;;;;;;;;5044352;28;45326;-73
2022/12/21 13:45:22;;;;;;;;;2.00;2.00;;;;;;;;5033603;28;45562;-74
2022/12/21 13:47:48;;;;;;;;;1.67;1.67;;;;;;;;5050055;28;47140;-75
2022/12/21 13:50:16;;;;;;;;;4.00;3.00;;;;;;;;5052355;28;45156;-76
2022/12/21 13:52:49;;;;;;;;;3.00;2.00;;;;;;;;5051023;28;45318;-78
2022/12/21 13:55:23;;;;;;;;;2.67;2.67;;;;;;;;5038027;28;45207;-77
2022/12/21 13:58:01;;;;;;;;;3.00;2.00;;;;;;;;5053574;28;45234;-77
2022/12/21 14:00:33;;;;;;;;;2.00;2.00;;;;;;;;5054044;28;45610;-77
2022/12/21 14:03:17;;;;;;;;;3.00;2.00;;;;;;;;5051304;28;45265;-79
2022/12/21 14:06:01;;;;;;;;;4.00;1.00;;;;;;;;5056359;28;45420;-78
2022/12/21 14:08:26;;;;;;;;;2.00;1.67;;;;;;;;5049377;28;45269;-79
2022/12/21 14:10:51;;;;;;;;;2.00;2.00;;;;;;;;5056199;28;45626;-75
2022/12/21 14:13:16;;;;;;;;;3.00;1.33;;;;;;;;5043769;28;45360;-76
2022/12/21 14:15:54;;;;;;;;;3.00;3.00;;;;;;;;5057906;28;45328;-77
2022/12/21 14:18:22;;;;;;;;;2.67;2.67;;;;;;;;5048597;28;45370;-76
2022/12/21 14:20:50;;;;;;;;;3.67;2.00;;;;;;;;5056342;28;45340;-77
2022/12/21 14:23:22;;;;;;;;;2.00;2.00;;;;;;;;5050322;28;45250;-76
2022/12/21 14:25:48;;;;;;;;;2.00;1.00;;;;;;;;5056186;28;44745;-77
2022/12/21 14:28:13;;;;;;;;;4.00;3.00;;;;;;;;5054888;28;45341;-77
2022/12/21 14:30:45;;;;;;;;;2.00;2.00;;;;;;;;5057616;28;45342;-79
2022/12/21 14:33:15;;;;;;;;;2.00;2.00;;;;;;;;5039334;28;45173;-79
2022/12/21 14:35:41;;;;;;;;;2.00;2.00;;;;;;;;5057961;28;45408;-77
2022/12/21 14:38:27;;;;;;;;;3.00;2.00;;;;;;;;5036826;28;47243;-77
2022/12/21 14:40:55;;;;;;;;;2.00;1.00;;;;;;;;5059215;28;45451;-77
2022/12/21 14:43:20;;;;;;;;;1.00;1.00;;;;;;;;5046896;28;45428;-79
2022/12/21 14:45:46;;;;;;;;;2.00;2.00;;;;;;;;5060724;28;45307;-77
2022/12/21 14:48:23;;;;;;;;;1.67;1.67;;;;;;;;5029460;28;47737;-77
2022/12/21 14:50:50;;;;;;;;;1.67;1.67;;;;;;;;5057608;28;45494;-77
2022/12/21 14:53:21;;;;;;;;;1.00;1.00;;;;;;;;5048665;28;45469;-77
2022/12/21 14:56:03;;;;;;;;;1.00;1.00;;;;;;;;5057099;28;45218;-77
2022/12/21 14:58:32;;;;;;;;;4.00;1.00;;;;;;;;5054066;28;45304;-78
2022/12/21 15:01:13;;;;;;;;;2.00;2.00;;;;;;;;5054055;28;45327;-78
2022/12/21 15:04:01;;;;;;;;;1.33;1.00;;;;;;;;5052715;28;45318;-77